Lexington, MS (39095)

11:28 PM CDT on September 01, 2015 (GMT -0500)
Greenwood-Leflore | | Change Station
CLOSE
Current Station
Airport
Location: Greenwood,
Elevation: 154 ft
Nearby Weather Stations

Elev 154 ft 33.49 °N, 90.08 °W | Updated 35 minutes ago

Partly Cloudy
Partly Cloudy
79 °F
Feels Like 79 °F
N
6
Wind Variable Wind from South

Today
High -- | Low -- °F
--% Chance of Precip.
Yesterday
High -- | Low -- °F
Precip. -- in
6:34 AM 7:25 PM
Waning Gibbous, 84% visible
Pressure 30.05 in
Visibility 10.0 miles
Clouds Clear
Dew Point 67 °F
Humidity 66%
Rainfall 0.00 in
Snow Depth Not available.
UV 0 out of 12
Pollen 9.30 out of 12
Air Quality Not available.
Flu Activity Not available.
METAR KGWO 020353Z AUTO 18005KT 10SM CLR 26/19 A3006 RMK AO2 SLP175 T02610194
Pressure 30.05 in
Visibility 10.0 miles
Clouds Clear
Dew Point 67 °F
Humidity 66%
Rainfall 0.00 in
Snow Depth Not available.
UV 0 out of 12
Pollen 9.30 out of 12
Air Quality Not available.
Flu Activity Not available.
METAR KGWO 020353Z AUTO 18005KT 10SM CLR 26/19 A3006 RMK AO2 SLP175 T02610194

10-Day Weather Forecast

×

Almanac

Astronomy

Sep. 01, 2015 Rise Set
Actual Time
Civil Twilight
Nautical Twilight
Astronomical Twilight
Moon
Length of Visible Light
Length of Day
Tomorrow will be .
, % of the Moon is Illuminated

Today's Extremes

State Highs State Lows

Community

WunderPhotos

Upload Photos

1,851,695 photos uploaded!

WunderBlogs® & News

Nearby

Air Quality

  Air Quality AQ Index Pollutant
Not available.

Snow Depth

Station Depth Elevation

Earthquake Activity

City Distance Mag. Time & Date
Minimum magnitude displayed is 2.5.

Coastal Water Temperatures

Place Temperature

Stations

Nearby Weather Stations

Station Location Temp. Windchill Dew Point Humidity Wind Precip. Elev Updated Type